sensor_id;sensor_type;location;lat;lon;timestamp;pressure;altitude;pressure_sealevel;temperature;humidity
41800;BME280;27468;47.460;19.034;2023-01-26T00:01:20;101214.47;;;4.37;77.78
41800;BME280;27468;47.460;19.034;2023-01-26T00:03:46;101213.50;;;4.30;77.54
41800;BME280;27468;47.460;19.034;2023-01-26T00:06:14;101151.94;;;3.95;77.42
41800;BME280;27468;47.460;19.034;2023-01-26T00:08:42;101204.84;;;4.33;77.19
41800;BME280;27468;47.460;19.034;2023-01-26T00:11:09;101208.25;;;4.29;76.71
41800;BME280;27468;47.460;19.034;2023-01-26T00:13:36;101195.00;;;4.20;77.19
41800;BME280;27468;47.460;19.034;2023-01-26T00:16:02;101150.28;;;4.00;77.43
41800;BME280;27468;47.460;19.034;2023-01-26T00:18:28;101194.25;;;4.25;77.14
41800;BME280;27468;47.460;19.034;2023-01-26T00:20:55;101190.66;;;4.20;77.62
41800;BME280;27468;47.460;19.034;2023-01-26T00:23:21;101196.03;;;4.28;77.40
41800;BME280;27468;47.460;19.034;2023-01-26T00:25:47;101182.00;;;4.23;77.56
41800;BME280;27468;47.460;19.034;2023-01-26T00:28:12;101135.44;;;3.96;77.36
41800;BME280;27468;47.460;19.034;2023-01-26T00:30:38;101106.41;;;3.79;77.38
41800;BME280;27468;47.460;19.034;2023-01-26T00:33:03;101174.94;;;4.17;77.83
41800;BME280;27468;47.460;19.034;2023-01-26T00:35:28;101188.16;;;4.25;78.09
41800;BME280;27468;47.460;19.034;2023-01-26T00:37:54;101188.13;;;4.23;78.02
41800;BME280;27468;47.460;19.034;2023-01-26T00:40:19;101202.16;;;4.30;78.10
41800;BME280;27468;47.460;19.034;2023-01-26T00:42:45;101196.91;;;4.28;78.21
41800;BME280;27468;47.460;19.034;2023-01-26T00:45:10;101181.97;;;4.20;78.44
41800;BME280;27468;47.460;19.034;2023-01-26T00:47:35;101189.88;;;4.24;78.49
41800;BME280;27468;47.460;19.034;2023-01-26T00:50:01;101163.50;;;4.11;78.59
41800;BME280;27468;47.460;19.034;2023-01-26T00:52:26;101189.13;;;4.30;78.41
41800;BME280;27468;47.460;19.034;2023-01-26T00:54:52;101139.06;;;4.04;78.24
41800;BME280;27468;47.460;19.034;2023-01-26T00:57:17;101180.28;;;4.23;78.49
41800;BME280;27468;47.460;19.034;2023-01-26T00:59:42;101135.41;;;3.94;78.53
41800;BME280;27468;47.460;19.034;2023-01-26T01:02:08;101175.09;;;4.25;78.60
41800;BME280;27468;47.460;19.034;2023-01-26T01:04:33;101176.81;;;4.23;78.84
41800;BME280;27468;47.460;19.034;2023-01-26T01:06:59;101186.41;;;4.25;78.75
41800;BME280;27468;47.460;19.034;2023-01-26T01:09:25;101180.09;;;4.13;78.93
41800;BME280;27468;47.460;19.034;2023-01-26T01:11:50;101117.81;;;3.84;79.15
41800;BME280;27468;47.460;19.034;2023-01-26T01:14:16;101169.78;;;4.20;79.07
41800;BME280;27468;47.460;19.034;2023-01-26T01:16:42;101171.59;;;4.24;79.00
41800;BME280;27468;47.460;19.034;2023-01-26T01:19:08;101176.72;;;4.18;78.93
41800;BME280;27468;47.460;19.034;2023-01-26T01:21:36;101178.50;;;4.21;78.92
41800;BME280;27468;47.460;19.034;2023-01-26T01:24:03;101155.78;;;4.15;78.90
41800;BME280;27468;47.460;19.034;2023-01-26T01:26:28;101118.94;;;3.97;78.61
41800;BME280;27468;47.460;19.034;2023-01-26T01:28:54;101147.78;;;4.06;78.44
41800;BME280;27468;47.460;19.034;2023-01-26T01:31:20;101168.84;;;4.17;78.21
41800;BME280;27468;47.460;19.034;2023-01-26T01:33:46;101158.44;;;4.18;78.21
41800;BME280;27468;47.460;19.034;2023-01-26T01:36:14;101159.25;;;4.16;77.92
41800;BME280;27468;47.460;19.034;2023-01-26T01:38:41;101154.03;;;4.16;77.92
41800;BME280;27468;47.460;19.034;2023-01-26T01:41:07;101145.13;;;4.05;78.01
41800;BME280;27468;47.460;19.034;2023-01-26T01:43:34;101153.22;;;4.18;77.93
41800;BME280;27468;47.460;19.034;2023-01-26T01:46:01;101133.84;;;4.06;77.77
41800;BME280;27468;47.460;19.034;2023-01-26T01:48:51;101147.97;;;4.17;77.79
41800;BME280;27468;47.460;19.034;2023-01-26T01:51:42;101101.34;;;3.87;77.49
41800;BME280;27468;47.460;19.034;2023-01-26T01:54:11;101140.06;;;4.12;77.43
41800;BME280;27468;47.460;19.034;2023-01-26T01:56:39;101141.03;;;4.17;77.25
41800;BME280;27468;47.460;19.034;2023-01-26T01:59:06;101141.03;;;4.17;77.29
41800;BME280;27468;47.460;19.034;2023-01-26T02:01:33;101144.50;;;4.18;77.30
41800;BME280;27468;47.460;19.034;2023-01-26T02:04:00;101114.66;;;4.01;77.23
41800;BME280;27468;47.460;19.034;2023-01-26T02:06:36;101128.78;;;4.13;77.12
41800;BME280;27468;47.460;19.034;2023-01-26T02:09:04;101128.72;;;4.10;76.92
41800;BME280;27468;47.460;19.034;2023-01-26T02:11:38;101072.72;;;3.90;77.02
41800;BME280;27468;47.460;19.034;2023-01-26T02:14:07;101079.69;;;3.91;76.90
41800;BME280;27468;47.460;19.034;2023-01-26T02:16:34;101120.13;;;4.16;77.16
41800;BME280;27468;47.460;19.034;2023-01-26T02:19:00;101111.31;;;4.09;77.03
41800;BME280;27468;47.460;19.034;2023-01-26T02:21:26;101116.59;;;4.14;76.99
41800;BME280;27468;47.460;19.034;2023-01-26T02:24:31;101115.59;;;4.07;76.23
41800;BME280;27468;47.460;19.034;2023-01-26T02:27:00;101090.88;;;3.85;75.15
41800;BME280;27468;47.460;19.034;2023-01-26T02:29:26;101112.84;;;3.96;75.26
41800;BME280;27468;47.460;19.034;2023-01-26T02:31:51;101103.38;;;4.05;74.90
41800;BME280;27468;47.460;19.034;2023-01-26T02:34:17;101035.78;;;3.69;74.91
41800;BME280;27468;47.460;19.034;2023-01-26T02:36:43;101056.09;;;3.85;74.98
41800;BME280;27468;47.460;19.034;2023-01-26T02:39:27;101089.50;;;4.06;74.81
41800;BME280;27468;47.460;19.034;2023-01-26T02:41:56;101087.53;;;3.92;74.53
41800;BME280;27468;47.460;19.034;2023-01-26T02:44:41;101079.78;;;3.97;74.33
41800;BME280;27468;47.460;19.034;2023-01-26T02:47:12;101075.47;;;3.97;74.32
41800;BME280;27468;47.460;19.034;2023-01-26T02:49:38;101073.81;;;4.03;74.32
41800;BME280;27468;47.460;19.034;2023-01-26T02:52:18;101061.59;;;4.00;74.30
41800;BME280;27468;47.460;19.034;2023-01-26T02:54:44;101060.69;;;3.98;74.53
41800;BME280;27468;47.460;19.034;2023-01-26T02:57:29;101032.66;;;3.88;74.29
41800;BME280;27468;47.460;19.034;2023-01-26T02:59:54;101044.06;;;3.93;74.33
41800;BME280;27468;47.460;19.034;2023-01-26T03:02:20;101002.53;;;3.57;73.78
41800;BME280;27468;47.460;19.034;2023-01-26T03:04:45;101035.09;;;3.77;73.95
41800;BME280;27468;47.460;19.034;2023-01-26T03:07:11;101010.47;;;3.61;74.05
41800;BME280;27468;47.460;19.034;2023-01-26T03:09:36;101027.25;;;3.77;73.38
41800;BME280;27468;47.460;19.034;2023-01-26T03:12:02;101047.34;;;3.81;73.67
41800;BME280;27468;47.460;19.034;2023-01-26T03:14:29;101035.72;;;3.64;73.88
41800;BME280;27468;47.460;19.034;2023-01-26T03:16:54;101054.31;;;3.82;74.21
41800;BME280;27468;47.460;19.034;2023-01-26T03:19:20;101009.63;;;3.64;74.02
41800;BME280;27468;47.460;19.034;2023-01-26T03:22:04;101040.44;;;3.85;73.94
41800;BME280;27468;47.460;19.034;2023-01-26T03:24:48;101000.91;;;3.62;73.60
41800;BME280;27468;47.460;19.034;2023-01-26T03:27:45;101034.31;;;3.83;73.39
41800;BME280;27468;47.460;19.034;2023-01-26T03:30:12;101027.22;;;3.76;73.49
41800;BME280;27468;47.460;19.034;2023-01-26T03:32:38;100957.94;;;3.40;73.38
41800;BME280;27468;47.460;19.034;2023-01-26T03:35:04;101022.94;;;3.78;73.67
41800;BME280;27468;47.460;19.034;2023-01-26T03:37:30;101016.84;;;3.79;73.61
41800;BME280;27468;47.460;19.034;2023-01-26T03:40:02;101016.16;;;3.87;73.63
41800;BME280;27468;47.460;19.034;2023-01-26T03:42:46;100991.50;;;3.70;73.19
41800;BME280;27468;47.460;19.034;2023-01-26T03:45:30;100963.44;;;3.57;73.34
41800;BME280;27468;47.460;19.034;2023-01-26T03:48:14;101013.47;;;3.83;73.32
41800;BME280;27468;47.460;19.034;2023-01-26T03:50:58;100966.13;;;3.61;73.29
41800;BME280;27468;47.460;19.034;2023-01-26T03:53:42;100967.00;;;3.62;73.48
41800;BME280;27468;47.460;19.034;2023-01-26T03:56:26;101005.59;;;3.81;73.39
41800;BME280;27468;47.460;19.034;2023-01-26T03:59:00;101007.19;;;3.73;73.25
41800;BME280;27468;47.460;19.034;2023-01-26T04:01:37;101008.00;;;3.71;73.48
41800;BME280;27468;47.460;19.034;2023-01-26T04:04:03;100951.09;;;3.45;73.45
41800;BME280;27468;47.460;19.034;2023-01-26T04:06:48;100978.44;;;3.69;73.43
41800;BME280;27468;47.460;19.034;2023-01-26T04:09:32;100980.84;;;3.58;73.31
41800;BME280;27468;47.460;19.034;2023-01-26T04:11:58;100999.38;;;3.73;73.84
41800;BME280;27468;47.460;19.034;2023-01-26T04:14:24;100997.75;;;3.80;73.65
41800;BME280;27468;47.460;19.034;2023-01-26T04:17:08;100934.56;;;3.45;73.75
41800;BME280;27468;47.460;19.034;2023-01-26T04:19:52;100985.47;;;3.74;73.87
41800;BME280;27468;47.460;19.034;2023-01-26T04:22:37;100989.03;;;3.79;74.09
41800;BME280;27468;47.460;19.034;2023-01-26T04:25:11;100971.63;;;3.77;74.01
41800;BME280;27468;47.460;19.034;2023-01-26T04:27:37;100971.38;;;3.63;74.18
41800;BME280;27468;47.460;19.034;2023-01-26T04:30:03;100974.66;;;3.53;74.63
41800;BME280;27468;47.460;19.034;2023-01-26T04:32:29;100965.84;;;3.45;74.72
41800;BME280;27468;47.460;19.034;2023-01-26T04:34:54;100936.88;;;3.28;74.85
41800;BME280;27468;47.460;19.034;2023-01-26T04:37:20;100961.59;;;3.51;74.65
41800;BME280;27468;47.460;19.034;2023-01-26T04:39:45;100965.00;;;3.46;74.46
41800;BME280;27468;47.460;19.034;2023-01-26T04:42:11;100926.25;;;3.17;73.95
41800;BME280;27468;47.460;19.034;2023-01-26T04:44:36;100983.53;;;3.62;73.96
41800;BME280;27468;47.460;19.034;2023-01-26T04:47:02;100979.25;;;3.66;74.19
41800;BME280;27468;47.460;19.034;2023-01-26T04:49:27;100973.91;;;3.58;73.73
41800;BME280;27468;47.460;19.034;2023-01-26T04:51:52;100973.09;;;3.62;73.86
41800;BME280;27468;47.460;19.034;2023-01-26T04:54:18;100964.84;;;3.37;73.45
41800;BME280;27468;47.460;19.034;2023-01-26T04:56:43;100920.09;;;3.14;73.72
41800;BME280;27468;47.460;19.034;2023-01-26T04:59:09;100974.44;;;3.39;73.48
41800;BME280;27468;47.460;19.034;2023-01-26T05:01:35;100983.19;;;3.43;73.53
41800;BME280;27468;47.460;19.034;2023-01-26T05:04:02;100921.03;;;3.17;73.41
41800;BME280;27468;47.460;19.034;2023-01-26T05:06:28;100988.41;;;3.43;72.97
41800;BME280;27468;47.460;19.034;2023-01-26T05:08:54;100966.63;;;3.39;72.72
41800;BME280;27468;47.460;19.034;2023-01-26T05:11:20;100921.78;;;3.12;72.40
41800;BME280;27468;47.460;19.034;2023-01-26T05:13:46;100919.16;;;3.10;71.95
41800;BME280;27468;47.460;19.034;2023-01-26T05:16:11;100960.28;;;3.26;72.50
41800;BME280;27468;47.460;19.034;2023-01-26T05:18:39;100923.28;;;2.99;72.57
41800;BME280;27468;47.460;19.034;2023-01-26T05:21:04;100969.97;;;3.32;72.53
41800;BME280;27468;47.460;19.034;2023-01-26T05:23:30;100954.16;;;3.23;72.32
41800;BME280;27468;47.460;19.034;2023-01-26T05:25:55;100969.25;;;3.41;72.08
41800;BME280;27468;47.460;19.034;2023-01-26T05:28:21;100925.16;;;3.06;72.02
41800;BME280;27468;47.460;19.034;2023-01-26T05:30:46;100966.56;;;3.36;72.11
41800;BME280;27468;47.460;19.034;2023-01-26T05:33:12;100954.38;;;3.35;72.00
41800;BME280;27468;47.460;19.034;2023-01-26T05:35:37;100922.84;;;3.21;72.03
41800;BME280;27468;47.460;19.034;2023-01-26T05:38:03;100955.50;;;3.51;72.12
41800;BME280;27468;47.460;19.034;2023-01-26T05:40:29;100923.94;;;3.33;72.18
41800;BME280;27468;47.460;19.034;2023-01-26T05:42:54;100980.94;;;3.64;72.33
41800;BME280;27468;47.460;19.034;2023-01-26T05:45:20;100967.84;;;3.59;72.70
41800;BME280;27468;47.460;19.034;2023-01-26T05:47:46;100973.91;;;3.58;72.39
41800;BME280;27468;47.460;19.034;2023-01-26T05:50:15;100941.28;;;3.32;72.16
41800;BME280;27468;47.460;19.034;2023-01-26T05:52:42;100934.50;;;3.40;72.23
41800;BME280;27468;47.460;19.034;2023-01-26T05:55:08;100943.28;;;3.45;72.28
41800;BME280;27468;47.460;19.034;2023-01-26T05:57:34;100976.69;;;3.69;72.24
41800;BME280;27468;47.460;19.034;2023-01-26T05:59:59;100927.50;;;3.38;72.03
41800;BME280;27468;47.460;19.034;2023-01-26T06:02:24;100961.63;;;3.53;72.38
41800;BME280;27468;47.460;19.034;2023-01-26T06:04:53;100973.50;;;3.36;71.84
41800;BME280;27468;47.460;19.034;2023-01-26T06:07:18;100991.13;;;3.50;71.92
41800;BME280;27468;47.460;19.034;2023-01-26T06:09:43;100937.00;;;3.36;71.71
41800;BME280;27468;47.460;19.034;2023-01-26T06:12:15;100959.06;;;3.54;71.26
41800;BME280;27468;47.460;19.034;2023-01-26T06:14:41;100973.88;;;3.57;70.72
41800;BME280;27468;47.460;19.034;2023-01-26T06:17:06;100978.28;;;3.61;71.17
41800;BME280;27468;47.460;19.034;2023-01-26T06:19:32;100978.44;;;3.69;71.13
41800;BME280;27468;47.460;19.034;2023-01-26T06:21:57;100974.66;;;3.53;70.88
41800;BME280;27468;47.460;19.034;2023-01-26T06:24:23;100934.41;;;3.36;70.91
41800;BME280;27468;47.460;19.034;2023-01-26T06:26:48;100977.41;;;3.60;70.50
41800;BME280;27468;47.460;19.034;2023-01-26T06:29:14;100938.00;;;3.42;70.47
41800;BME280;27468;47.460;19.034;2023-01-26T06:31:39;100933.63;;;3.40;70.55
41800;BME280;27468;47.460;19.034;2023-01-26T06:34:06;100977.50;;;3.65;70.88
41800;BME280;27468;47.460;19.034;2023-01-26T06:36:31;100966.72;;;3.47;70.34
41800;BME280;27468;47.460;19.034;2023-01-26T06:38:57;100929.06;;;3.28;70.08
41800;BME280;27468;47.460;19.034;2023-01-26T06:41:23;100969.53;;;3.57;70.28
41800;BME280;27468;47.460;19.034;2023-01-26T06:43:48;100968.75;;;3.61;70.22
41800;BME280;27468;47.460;19.034;2023-01-26T06:46:15;100967.06;;;3.65;70.22
41800;BME280;27468;47.460;19.034;2023-01-26T06:48:40;100923.72;;;3.22;70.04
41800;BME280;27468;47.460;19.034;2023-01-26T06:53:51;100963.97;;;3.36;70.04
41800;BME280;27468;47.460;19.034;2023-01-26T06:56:17;100918.25;;;3.08;70.28
41800;BME280;27468;47.460;19.034;2023-01-26T06:58:42;100959.66;;;3.38;69.82
41800;BME280;27468;47.460;19.034;2023-01-26T07:01:19;100913.19;;;3.16;69.85
41800;BME280;27468;47.460;19.034;2023-01-26T07:03:47;100962.19;;;3.35;69.88
41800;BME280;27468;47.460;19.034;2023-01-26T07:06:13;100939.50;;;3.29;69.35
41800;BME280;27468;47.460;19.034;2023-01-26T07:08:39;100953.44;;;3.31;69.82
41800;BME280;27468;47.460;19.034;2023-01-26T07:11:05;100954.38;;;3.35;69.06
41800;BME280;27468;47.460;19.034;2023-01-26T07:13:31;100935.69;;;3.12;69.01
41800;BME280;27468;47.460;19.034;2023-01-26T07:16:04;100956.16;;;3.38;69.16
41800;BME280;27468;47.460;19.034;2023-01-26T07:18:30;100902.78;;;3.16;69.19
41800;BME280;27468;47.460;19.034;2023-01-26T07:21:08;100959.09;;;3.57;68.87
41800;BME280;27468;47.460;19.034;2023-01-26T07:23:35;100877.69;;;3.21;69.12
41800;BME280;27468;47.460;19.034;2023-01-26T07:26:00;100898.84;;;3.39;69.05
41800;BME280;27468;47.460;19.034;2023-01-26T07:28:26;100899.75;;;3.41;69.01
41800;BME280;27468;47.460;19.034;2023-01-26T07:30:52;100949.88;;;3.76;68.84
41800;BME280;27468;47.460;19.034;2023-01-26T07:33:21;100901.69;;;3.54;68.57
41800;BME280;27468;47.460;19.034;2023-01-26T07:35:46;100935.03;;;3.72;68.37
41800;BME280;27468;47.460;19.034;2023-01-26T07:38:12;100875.31;;;3.35;67.92
41800;BME280;27468;47.460;19.034;2023-01-26T07:40:37;100919.34;;;3.69;68.41
41800;BME280;27468;47.460;19.034;2023-01-26T07:43:02;100910.63;;;3.69;68.58
41800;BME280;27468;47.460;19.034;2023-01-26T07:45:28;100888.47;;;3.42;67.91
41800;BME280;27468;47.460;19.034;2023-01-26T07:47:54;100936.63;;;3.64;67.61
41800;BME280;27468;47.460;19.034;2023-01-26T07:50:19;100927.59;;;3.44;66.79
41800;BME280;27468;47.460;19.034;2023-01-26T07:52:48;100950.50;;;3.61;67.09
41800;BME280;27468;47.460;19.034;2023-01-26T07:55:17;100943.78;;;3.76;67.14
41800;BME280;27468;47.460;19.034;2023-01-26T07:57:47;100947.25;;;3.75;67.00
41800;BME280;27468;47.460;19.034;2023-01-26T08:00:13;100947.44;;;3.87;67.30
41800;BME280;27468;47.460;19.034;2023-01-26T08:02:39;100859.81;;;3.42;67.35
41800;BME280;27468;47.460;19.034;2023-01-26T08:05:05;100888.09;;;3.72;67.46
41800;BME280;27468;47.460;19.034;2023-01-26T08:07:30;100943.38;;;4.04;67.44
41800;BME280;27468;47.460;19.034;2023-01-26T08:09:56;100893.34;;;3.74;67.48
41800;BME280;27468;47.460;19.034;2023-01-26T08:12:23;100938.50;;;3.73;66.65
41800;BME280;27468;47.460;19.034;2023-01-26T08:14:48;100940.44;;;3.83;66.69
41800;BME280;27468;47.460;19.034;2023-01-26T08:17:14;100898.09;;;3.48;65.69
41800;BME280;27468;47.460;19.034;2023-01-26T08:19:41;100933.19;;;3.67;65.70
41800;BME280;27468;47.460;19.034;2023-01-26T08:22:07;100948.16;;;3.78;65.19
41800;BME280;27468;47.460;19.034;2023-01-26T08:24:32;100926.88;;;3.54;65.24
41800;BME280;27468;47.460;19.034;2023-01-26T08:26:58;100905.63;;;3.29;65.81
41800;BME280;27468;47.460;19.034;2023-01-26T08:29:23;100919.91;;;3.53;65.92
41800;BME280;27468;47.460;19.034;2023-01-26T08:31:48;100953.19;;;3.68;66.22
41800;BME280;27468;47.460;19.034;2023-01-26T08:34:14;100895.44;;;3.43;65.89
41800;BME280;27468;47.460;19.034;2023-01-26T08:36:41;100948.16;;;3.77;65.90
41800;BME280;27468;47.460;19.034;2023-01-26T08:39:06;100938.47;;;3.70;66.34
41800;BME280;27468;47.460;19.034;2023-01-26T08:41:31;100843.16;;;3.34;66.41
41800;BME280;27468;47.460;19.034;2023-01-26T08:43:57;100913.41;;;3.78;65.89
41800;BME280;27468;47.460;19.034;2023-01-26T08:46:24;100869.50;;;3.52;65.78
41800;BME280;27468;47.460;19.034;2023-01-26T08:48:50;100947.41;;;3.85;65.49
41800;BME280;27468;47.460;19.034;2023-01-26T08:51:15;100934.72;;;3.55;65.81
41800;BME280;27468;47.460;19.034;2023-01-26T08:53:40;100880.22;;;3.18;65.86
41800;BME280;27468;47.460;19.034;2023-01-26T08:56:08;100901.25;;;3.27;66.24
41800;BME280;27468;47.460;19.034;2023-01-26T08:58:35;100940.25;;;3.72;66.29
41800;BME280;27468;47.460;19.034;2023-01-26T09:01:09;100937.47;;;3.63;65.99
41800;BME280;27468;47.460;19.034;2023-01-26T09:03:35;100899.47;;;3.26;65.95
41800;BME280;27468;47.460;19.034;2023-01-26T09:06:01;100927.47;;;3.36;65.69
41800;BME280;27468;47.460;19.034;2023-01-26T09:08:28;100937.28;;;3.52;66.23
41800;BME280;27468;47.460;19.034;2023-01-26T09:10:54;100888.50;;;3.44;66.20
41800;BME280;27468;47.460;19.034;2023-01-26T09:13:19;100908.16;;;3.76;66.05
41800;BME280;27468;47.460;19.034;2023-01-26T09:15:45;100887.25;;;3.75;65.72
41800;BME280;27468;47.460;19.034;2023-01-26T09:18:10;100933.94;;;4.14;65.61
41800;BME280;27468;47.460;19.034;2023-01-26T09:20:39;100946.28;;;4.24;65.27
41800;BME280;27468;47.460;19.034;2023-01-26T09:23:05;100930.38;;;4.09;64.35
41800;BME280;27468;47.460;19.034;2023-01-26T09:25:31;100911.91;;;3.93;64.60
41800;BME280;27468;47.460;19.034;2023-01-26T09:27:56;100886.34;;;3.71;64.60
41800;BME280;27468;47.460;19.034;2023-01-26T09:30:22;100937.22;;;3.99;64.73
41800;BME280;27468;47.460;19.034;2023-01-26T09:32:51;100868.97;;;3.73;64.88
41800;BME280;27468;47.460;19.034;2023-01-26T09:35:16;100916.28;;;3.94;64.34
41800;BME280;27468;47.460;19.034;2023-01-26T09:37:42;100920.97;;;4.20;64.97
41800;BME280;27468;47.460;19.034;2023-01-26T09:40:18;100862.19;;;3.83;64.03
41800;BME280;27468;47.460;19.034;2023-01-26T09:45:43;100907.16;;;4.27;64.63
41800;BME280;27468;47.460;19.034;2023-01-26T09:51:03;100917.00;;;4.46;64.57
41800;BME280;27468;47.460;19.034;2023-01-26T09:53:41;100895.25;;;4.46;64.71
41800;BME280;27468;47.460;19.034;2023-01-26T09:56:19;100893.50;;;4.46;63.99
41800;BME280;27468;47.460;19.034;2023-01-26T09:58:52;100858.47;;;4.27;64.08
41800;BME280;27468;47.460;19.034;2023-01-26T10:06:51;100888.16;;;4.37;63.46
41800;BME280;27468;47.460;19.034;2023-01-26T10:09:26;100879.59;;;4.47;63.49
41800;BME280;27468;47.460;19.034;2023-01-26T10:11:57;100864.78;;;4.45;63.24
41800;BME280;27468;47.460;19.034;2023-01-26T10:14:32;100890.13;;;4.53;62.60
41800;BME280;27468;47.460;19.034;2023-01-26T10:17:03;100860.47;;;4.48;63.18
41800;BME280;27468;47.460;19.034;2023-01-26T10:19:40;100877.94;;;4.54;62.78
41800;BME280;27468;47.460;19.034;2023-01-26T10:22:15;100874.44;;;4.52;62.71
41800;BME280;27468;47.460;19.034;2023-01-26T10:24:46;100870.16;;;4.57;62.94
41800;BME280;27468;47.460;19.034;2023-01-26T10:27:13;100861.41;;;4.53;62.77
41800;BME280;27468;47.460;19.034;2023-01-26T10:29:38;100829.03;;;4.41;62.53
41800;BME280;27468;47.460;19.034;2023-01-26T10:32:04;100847.53;;;4.57;62.98
41800;BME280;27468;47.460;19.034;2023-01-26T10:34:30;100832.75;;;4.58;62.79
41800;BME280;27468;47.460;19.034;2023-01-26T10:37:19;100847.69;;;4.74;62.37
41800;BME280;27468;47.460;19.034;2023-01-26T10:40:03;100844.97;;;4.60;62.21
41800;BME280;27468;47.460;19.034;2023-01-26T10:42:30;100825.50;;;4.36;62.65
41800;BME280;27468;47.460;19.034;2023-01-26T10:44:57;100850.94;;;4.52;63.08
41800;BME280;27468;47.460;19.034;2023-01-26T10:47:24;100851.63;;;4.37;62.87
41800;BME280;27468;47.460;19.034;2023-01-26T10:49:50;100852.53;;;4.41;62.62
41800;BME280;27468;47.460;19.034;2023-01-26T10:52:23;100844.56;;;4.28;63.16
41800;BME280;27468;47.460;19.034;2023-01-26T10:55:19;100842.66;;;4.17;63.22
41800;BME280;27468;47.460;19.034;2023-01-26T10:57:44;100840.09;;;4.20;63.70
41800;BME280;27468;47.460;19.034;2023-01-26T11:02:57;100817.53;;;4.25;64.26
41800;BME280;27468;47.460;19.034;2023-01-26T11:05:25;100823.78;;;4.38;64.14
41800;BME280;27468;47.460;19.034;2023-01-26T11:07:54;100825.59;;;4.43;64.21
41800;BME280;27468;47.460;19.034;2023-01-26T11:10:36;100775.72;;;4.20;63.32
41800;BME280;27468;47.460;19.034;2023-01-26T11:13:19;100826.47;;;4.42;63.21
41800;BME280;27468;47.460;19.034;2023-01-26T11:15:47;100808.16;;;4.39;63.35
41800;BME280;27468;47.460;19.034;2023-01-26T11:21:19;100761.91;;;4.29;62.42
41800;BME280;27468;47.460;19.034;2023-01-26T11:24:08;100802.22;;;4.54;62.54
41800;BME280;27468;47.460;19.034;2023-01-26T11:32:25;100800.78;;;4.82;62.83
41800;BME280;27468;47.460;19.034;2023-01-26T11:43:38;100791.69;;;4.45;63.20
41800;BME280;27468;47.460;19.034;2023-01-26T11:49:06;100772.69;;;4.62;63.26
41800;BME280;27468;47.460;19.034;2023-01-26T11:56:48;100713.94;;;4.19;63.90
41800;BME280;27468;47.460;19.034;2023-01-26T11:59:27;100748.25;;;4.51;64.04
41800;BME280;27468;47.460;19.034;2023-01-26T12:02:22;100760.50;;;4.58;63.89
41800;BME280;27468;47.460;19.034;2023-01-26T12:04:50;100694.09;;;4.34;64.01
41800;BME280;27468;47.460;19.034;2023-01-26T12:07:28;100722.16;;;4.54;63.99
41800;BME280;27468;47.460;19.034;2023-01-26T12:09:54;100748.31;;;4.59;63.75
41800;BME280;27468;47.460;19.034;2023-01-26T12:12:31;100730.06;;;4.60;63.78
41800;BME280;27468;47.460;19.034;2023-01-26T12:15:03;100738.00;;;4.74;63.67
41800;BME280;27468;47.460;19.034;2023-01-26T12:20:37;100730.28;;;4.88;63.30
41800;BME280;27468;47.460;19.034;2023-01-26T12:25:39;100727.63;;;4.80;64.21
41800;BME280;27468;47.460;19.034;2023-01-26T12:28:26;100732.81;;;4.79;63.71
41800;BME280;27468;47.460;19.034;2023-01-26T12:33:22;100737.19;;;4.80;63.70
41800;BME280;27468;47.460;19.034;2023-01-26T12:35:59;100729.41;;;4.86;63.83
41800;BME280;27468;47.460;19.034;2023-01-26T12:38:51;100719.03;;;4.93;63.39
41800;BME280;27468;47.460;19.034;2023-01-26T12:46:57;100671.84;;;4.75;63.80
41800;BME280;27468;47.460;19.034;2023-01-26T12:49:31;100719.09;;;5.03;63.63
41800;BME280;27468;47.460;19.034;2023-01-26T12:52:39;100710.28;;;4.88;63.61
41800;BME280;27468;47.460;19.034;2023-01-26T12:55:25;100696.28;;;4.83;63.31
41800;BME280;27468;47.460;19.034;2023-01-26T12:58:07;100709.34;;;4.82;63.99
41800;BME280;27468;47.460;19.034;2023-01-26T13:00:37;100701.56;;;4.89;63.91
41800;BME280;27468;47.460;19.034;2023-01-26T13:03:05;100680.59;;;4.82;64.02
41800;BME280;27468;47.460;19.034;2023-01-26T13:05:54;100706.91;;;5.03;63.65
41800;BME280;27468;47.460;19.034;2023-01-26T13:10:55;100696.50;;;5.08;63.49
41800;BME280;27468;47.460;19.034;2023-01-26T13:18:55;100691.75;;;4.59;63.67
41800;BME280;27468;47.460;19.034;2023-01-26T13:24:40;100691.75;;;4.62;64.07
41800;BME280;27468;47.460;19.034;2023-01-26T13:26:56;100642.78;;;4.34;64.33
41800;BME280;27468;47.460;19.034;2023-01-26T13:31:55;100665.63;;;4.62;64.41
41800;BME280;27468;47.460;19.034;2023-01-26T13:34:42;100703.22;;;4.78;64.33
41800;BME280;27468;47.460;19.034;2023-01-26T13:37:45;100642.06;;;4.52;64.28
41800;BME280;27468;47.460;19.034;2023-01-26T13:40:27;100671.75;;;4.61;64.26
41800;BME280;27468;47.460;19.034;2023-01-26T13:43:00;100641.88;;;4.30;64.25
41800;BME280;27468;47.460;19.034;2023-01-26T13:45:39;100675.84;;;4.37;64.42
41800;BME280;27468;47.460;19.034;2023-01-26T13:48:14;100694.13;;;4.37;64.75
41800;BME280;27468;47.460;19.034;2023-01-26T13:50:41;100702.84;;;4.37;64.53
41800;BME280;27468;47.460;19.034;2023-01-26T13:55:57;100681.81;;;4.25;66.12
41800;BME280;27468;47.460;19.034;2023-01-26T13:58:23;100689.81;;;4.39;66.84
41800;BME280;27468;47.460;19.034;2023-01-26T14:03:23;100667.06;;;4.27;68.25
41800;BME280;27468;47.460;19.034;2023-01-26T14:05:59;100640.03;;;4.20;68.25
41800;BME280;27468;47.460;19.034;2023-01-26T14:08:26;100671.47;;;4.32;68.74
41800;BME280;27468;47.460;19.034;2023-01-26T14:10:53;100656.38;;;4.03;69.12
41800;BME280;27468;47.460;19.034;2023-01-26T14:13:36;100660.72;;;4.01;69.74
41800;BME280;27468;47.460;19.034;2023-01-26T14:16:04;100696.63;;;4.26;69.97
41800;BME280;27468;47.460;19.034;2023-01-26T14:18:30;100649.44;;;4.06;70.26